Time;durP1;ratioP1;P1;durP2;ratioP2;P2;SDS_P1;SDS_P2;PMS_P1;PMS_P2;Temp;Humidity;BMP_temperature;BMP_pressure;BME280_temperature;BME280_humidity;BME280_pressure;Samples;Min_cycle;Max_cycle;Signal;HPM_P1;HPM_P2
2022/07/24 00:07:25;;;;;;;;;;;;;;;;;;21172464;28;19924;-56
2022/07/24 00:17:27;;;;;;;;;;;;;;;;;;21171495;28;19920;-54
2022/07/24 00:27:29;;;;;;;;;;;;;;;;;;21171731;28;19920;-55
2022/07/24 00:37:31;;;;;;;;;;;;;;;;;;21172759;28;20021;-58
2022/07/24 00:47:33;;;;;;;;;;;;;;;;;;21170609;28;19919;-53
2022/07/24 00:57:35;;;;;;;;;;;;;;;;;;21168616;28;20325;-57
2022/07/24 01:07:36;;;;;;;;;;;;;;;;;;21168329;28;19927;-54
2022/07/24 01:17:38;;;;;;;;;;;;;;;;;;21167912;28;20295;-55
2022/07/24 01:27:39;;;;;;;;;;;;;;;;;;21167319;28;20363;-56
2022/07/24 01:37:46;;;;;;;;;;;;;;;;;;21167733;28;19931;-54
2022/07/24 01:47:58;;;;;;;;;;;;;;;;;;21165919;28;20327;-59
2022/07/24 01:58:06;;;;;;;;;;;;;;;;;;21164885;28;19955;-54
2022/07/24 02:08:11;;;;;;;;;;;;;;;;;;21164083;28;20364;-56
2022/07/24 02:18:23;;;;;;;;;;;;;;;;;;21163062;28;19927;-55
2022/07/24 02:28:29;;;;;;;;;;;;;;;;;;21164434;28;19923;-54
2022/07/24 02:38:44;;;;;;;;;;;;;;;;;;21162874;28;19926;-55
2022/07/24 02:48:58;;;;;;;;;;;;;;;;;;21161924;28;20371;-60
2022/07/24 02:59:06;;;;;;;;;;;;;;;;;;21161509;28;19923;-55
2022/07/24 03:09:14;;;;;;;;;;;;;;;;;;21168833;28;20275;-53
2022/07/24 03:19:23;;;;;;;;;;;;;;;;;;21177969;28;19973;-69
2022/07/24 03:29:27;;;;;;;;;;;;;;;;;;21176100;28;19920;-64
2022/07/24 03:39:36;;;;;;;;;;;;;;;;;;21175450;28;19924;-55
2022/07/24 03:49:43;;;;;;;;;;;;;;;;;;21176138;28;20373;-55
2022/07/24 03:59:44;;;;;;;;;;;;;;;;;;21173456;28;19920;-54
2022/07/24 04:09:48;;;;;;;;;;;;;;;;;;21172986;28;19920;-58
2022/07/24 04:19:50;;;;;;;;;;;;;;;;;;21171575;28;19919;-53
2022/07/24 04:29:52;;;;;;;;;;;;;;;;;;21172568;28;19941;-63
2022/07/24 04:39:55;;;;;;;;;;;;;;;;;;21170675;28;20395;-55
2022/07/24 04:49:58;;;;;;;;;;;;;;;;;;21170566;28;19919;-56
2022/07/24 05:00:00;;;;;;;;;;;;;;;;;;21171914;28;19973;-57
2022/07/24 05:10:02;;;;;;;;;;;;;;;;;;21167795;28;19919;-56
2022/07/24 05:20:04;;;;;;;;;;;;;;;;;;21167320;28;19919;-56
2022/07/24 05:30:06;;;;;;;;;;;;;;;;;;21168015;28;19923;-56
2022/07/24 05:40:08;;;;;;;;;;;;;;;;;;21165795;28;19959;-53
2022/07/24 05:50:10;;;;;;;;;;;;;;;;;;21166545;28;20002;-55
2022/07/24 06:00:11;;;;;;;;;;;;;;;;;;21166017;28;20371;-53
2022/07/24 06:10:13;;;;;;;;;;;;;;;;;;21165261;28;19919;-66
2022/07/24 06:20:16;;;;;;;;;;;;;;;;;;21168165;28;20390;-61
2022/07/24 06:30:18;;;;;;;;;;;;;;;;;;21164853;28;19954;-60
2022/07/24 06:40:20;;;;;;;;;;;;;;;;;;21164336;28;19919;-66
2022/07/24 06:50:21;;;;;;;;;;;;;;;;;;21160227;28;20005;-56
2022/07/24 07:00:23;;;;;;;;;;;;;;;;;;21178882;28;20298;-61
2022/07/24 07:10:26;;;;;;;;;;;;;;;;;;21177267;28;19930;-53
2022/07/24 07:20:28;;;;;;;;;;;;;;;;;;21177076;28;19926;-60
2022/07/24 07:30:30;;;;;;;;;;;;;;;;;;21175936;28;20436;-58
2022/07/24 07:40:31;;;;;;;;;;;;;;;;;;21174823;28;19920;-71
2022/07/24 07:50:34;;;;;;;;;;;;;;;;;;21174480;28;20005;-71
2022/07/24 08:00:36;;;;;;;;;;;;;;;;;;21172004;28;19920;-74
2022/07/24 08:10:37;;;;;;;;;;;;;;;;;;21173167;28;19927;-66
2022/07/24 08:20:39;;;;;;;;;;;;;;;;;;21173172;28;19920;-74
2022/07/24 08:30:41;;;;;;;;;;;;;;;;;;21174732;28;19962;-56
2022/07/24 08:40:43;;;;;;;;;;;;;;;;;;21171662;28;19927;-60
2022/07/24 08:50:45;;;;;;;;;;;;;;;;;;21170887;28;20260;-60
2022/07/24 09:00:47;;;;;;;;;;;;;;;;;;21169052;28;20398;-65
2022/07/24 09:11:09;;;;;;;;;;;;;;;;;;21167903;28;19919;-57
2022/07/24 09:21:10;;;;;;;;;;;;;;;;;;21167712;28;19920;-55
2022/07/24 09:31:12;;;;;;;;;;;;;;;;;;21168264;28;20409;-55
2022/07/24 09:41:14;;;;;;;;;;;;;;;;;;21166319;28;20424;-58
2022/07/24 09:51:17;;;;;;;;;;;;;;;;;;21165304;28;19938;-55
2022/07/24 10:01:18;;;;;;;;;;;;;;;;;;21158399;28;19962;-73
2022/07/24 10:11:21;;;;;;;;;;;;;;;;;;21163778;28;20436;-65
2022/07/24 10:21:23;;;;;;;;;;;;;;;;;;21164041;28;19926;-69
2022/07/24 10:31:25;;;;;;;;;;;;;;;;;;21163839;28;20264;-62
2022/07/24 10:41:27;;;;;;;;;;;;;;;;;;21163091;28;19926;-64
2022/07/24 10:51:29;;;;;;;;;;;;;;;;;;21162971;28;20400;-66
2022/07/24 11:01:31;;;;;;;;;;;;;;;;;;21163143;28;19926;-70
2022/07/24 11:11:32;;;;;;;;;;;;;;;;;;21161582;28;19924;-60
2022/07/24 11:21:37;;;;;;;;;;;;;;;;;;21161525;28;19920;-67
2022/07/24 11:31:39;;;;;;;;;;;;;;;;;;21168417;28;20321;-59
2022/07/24 11:41:40;;;;;;;;;;;;;;;;;;21175825;28;19919;-69
2022/07/24 11:51:42;;;;;;;;;;;;;;;;;;21177368;28;20318;-56
2022/07/24 12:01:44;;;;;;;;;;;;;;;;;;21175517;28;19924;-55
2022/07/24 12:11:46;;;;;;;;;;;;;;;;;;21176355;28;19976;-59
2022/07/24 12:21:48;;;;;;;;;;;;;;;;;;21173062;28;20256;-55
2022/07/24 12:31:49;;;;;;;;;;;;;;;;;;21171690;28;20005;-55
2022/07/24 12:41:51;;;;;;;;;;;;;;;;;;21171398;28;20321;-55
2022/07/24 12:51:53;;;;;;;;;;;;;;;;;;21169341;28;20008;-55
2022/07/24 13:01:55;;;;;;;;;;;;;;;;;;21169358;28;19919;-58
2022/07/24 13:11:57;;;;;;;;;;;;;;;;;;21168085;28;19972;-54
2022/07/24 13:21:59;;;;;;;;;;;;;;;;;;21167695;28;19919;-58
2022/07/24 13:32:01;;;;;;;;;;;;;;;;;;21167711;28;19931;-61
2022/07/24 13:42:06;;;;;;;;;;;;;;;;;;21167610;28;20383;-68
2022/07/24 13:52:09;;;;;;;;;;;;;;;;;;21164956;28;19924;-54
2022/07/24 14:02:15;;;;;;;;;;;;;;;;;;21175043;28;19919;-62
2022/07/24 14:12:16;;;;;;;;;;;;;;;;;;21164575;28;20018;-58
2022/07/24 14:22:19;;;;;;;;;;;;;;;;;;21163964;28;20287;-57
2022/07/24 14:32:20;;;;;;;;;;;;;;;;;;21163194;28;19920;-55
2022/07/24 14:42:22;;;;;;;;;;;;;;;;;;21162873;28;19920;-56
2022/07/24 14:52:24;;;;;;;;;;;;;;;;;;21162974;28;19990;-67
2022/07/24 15:02:26;;;;;;;;;;;;;;;;;;21164940;28;19924;-55
2022/07/24 15:12:28;;;;;;;;;;;;;;;;;;21179852;28;19919;-69
2022/07/24 15:22:30;;;;;;;;;;;;;;;;;;21180602;28;20007;-59
2022/07/24 15:32:32;;;;;;;;;;;;;;;;;;21177694;28;20272;-73
2022/07/24 15:42:35;;;;;;;;;;;;;;;;;;21180978;28;20006;-72
2022/07/24 15:52:37;;;;;;;;;;;;;;;;;;21176100;28;19924;-60
2022/07/24 16:02:39;;;;;;;;;;;;;;;;;;21174421;28;20325;-58
2022/07/24 16:12:41;;;;;;;;;;;;;;;;;;21172757;28;20010;-63
2022/07/24 16:22:43;;;;;;;;;;;;;;;;;;21172147;28;19920;-53
2022/07/24 16:32:45;;;;;;;;;;;;;;;;;;21172051;28;19927;-56
2022/07/24 16:42:47;;;;;;;;;;;;;;;;;;21175499;28;20344;-60
2022/07/24 16:52:49;;;;;;;;;;;;;;;;;;21170695;28;19920;-56
2022/07/24 17:02:51;;;;;;;;;;;;;;;;;;21170245;28;20003;-56
2022/07/24 17:12:53;;;;;;;;;;;;;;;;;;21168131;28;19920;-55
2022/07/24 17:22:55;;;;;;;;;;;;;;;;;;21167468;28;19926;-55
2022/07/24 17:32:57;;;;;;;;;;;;;;;;;;21166522;28;20064;-55
2022/07/24 17:42:59;;;;;;;;;;;;;;;;;;21166512;28;20018;-55
2022/07/24 17:53:01;;;;;;;;;;;;;;;;;;21147386;28;19920;-56
2022/07/24 18:03:05;;;;;;;;;;;;;;;;;;21164901;28;20363;-55
2022/07/24 18:13:07;;;;;;;;;;;;;;;;;;21163372;28;19927;-57
2022/07/24 18:23:09;;;;;;;;;;;;;;;;;;21163517;28;19920;-71
2022/07/24 18:33:13;;;;;;;;;;;;;;;;;;21163211;28;20332;-59
2022/07/24 18:43:15;;;;;;;;;;;;;;;;;;21175551;28;20390;-64
2022/07/24 18:53:17;;;;;;;;;;;;;;;;;;21179767;28;19924;-72
2022/07/24 19:03:19;;;;;;;;;;;;;;;;;;21179102;28;19999;-74
2022/07/24 19:13:21;;;;;;;;;;;;;;;;;;21181030;28;19920;-54
2022/07/24 19:23:23;;;;;;;;;;;;;;;;;;21178776;28;19926;-60
2022/07/24 19:33:25;;;;;;;;;;;;;;;;;;21176809;28;19926;-57
2022/07/24 19:43:27;;;;;;;;;;;;;;;;;;21175955;28;20392;-61
2022/07/24 19:53:29;;;;;;;;;;;;;;;;;;21174216;28;19919;-59
2022/07/24 20:03:31;;;;;;;;;;;;;;;;;;21174297;28;19920;-54
2022/07/24 20:13:33;;;;;;;;;;;;;;;;;;21174602;28;19927;-56
2022/07/24 20:23:35;;;;;;;;;;;;;;;;;;21173409;28;20022;-55
2022/07/24 20:33:37;;;;;;;;;;;;;;;;;;21172602;28;19924;-54
2022/07/24 20:43:38;;;;;;;;;;;;;;;;;;21172469;28;19934;-56
2022/07/24 20:53:41;;;;;;;;;;;;;;;;;;21173898;28;19920;-58
2022/07/24 21:03:43;;;;;;;;;;;;;;;;;;21172929;28;19920;-61
2022/07/24 21:13:45;;;;;;;;;;;;;;;;;;21167720;28;19920;-62
2022/07/24 21:23:46;;;;;;;;;;;;;;;;;;21168228;28;19929;-60
2022/07/24 21:33:48;;;;;;;;;;;;;;;;;;21168717;28;20329;-59
2022/07/24 21:43:50;;;;;;;;;;;;;;;;;;21168201;28;20367;-57
2022/07/24 21:53:53;;;;;;;;;;;;;;;;;;21171471;28;20042;-63
2022/07/24 22:03:55;;;;;;;;;;;;;;;;;;21162489;28;19919;-61
2022/07/24 22:13:57;;;;;;;;;;;;;;;;;;21166741;28;19976;-61
2022/07/24 22:23:59;;;;;;;;;;;;;;;;;;21165425;28;19920;-61
2022/07/24 22:34:00;;;;;;;;;;;;;;;;;;21164876;28;19980;-60
2022/07/24 22:44:02;;;;;;;;;;;;;;;;;;21167167;28;19966;-65
2022/07/24 22:54:04;;;;;;;;;;;;;;;;;;21162651;28;20053;-71
2022/07/24 23:04:06;;;;;;;;;;;;;;;;;;21162971;28;20314;-64
2022/07/24 23:14:08;;;;;;;;;;;;;;;;;;21161321;28;19919;-63
2022/07/24 23:24:11;;;;;;;;;;;;;;;;;;21164041;28;19973;-60
2022/07/24 23:34:14;;;;;;;;;;;;;;;;;;21180803;28;19988;-63
2022/07/24 23:44:15;;;;;;;;;;;;;;;;;;21177070;28;19927;-64
2022/07/24 23:54:17;;;;;;;;;;;;;;;;;;21174925;28;20441;-66
